Amelia, Virginia
Current Conditions -  °F | °C
As of 10:55 AM on Friday 28 Nov 2014 (Local Time) from KW81 Reporting Station
Clear Clear  
Wind Chill: 31°   Ceiling: Unl
Heat Index: 38°   Visibility: 10mi
Dew Point: 15°   Wind: 10mph
Humidity: 38%   Direction: 340°NNW
Pressure: 30.34"   Gusts: 16mph
Location:  37.3498°N, 77.9661°W
Report Text: KW81 281555Z AUTO 34009G14KT 10SM CLR 04/M10 A3034 RMK AO1 T00351097
Loading
Personal Weather Stations






























Interactive Weather Map New forecast layout! Learn more

10-Day Weather Forecast

Advertisements
Track Severe Weather on mobile